createdAt,value
2019-02-24T00:00:01.906Z,4.10
2019-02-24T00:02:34.267Z,5.67
2019-02-24T00:05:05.362Z,4.30
2019-02-24T00:07:36.113Z,4.13
2019-02-24T00:10:07.433Z,5.53
2019-02-24T00:12:38.243Z,4.87
2019-02-24T00:15:09.406Z,3.90
2019-02-24T00:17:40.153Z,5.67
2019-02-24T00:20:12.161Z,4.27
2019-02-24T00:22:43.128Z,5.20
2019-02-24T00:25:13.859Z,5.20
2019-02-24T00:27:45.027Z,4.77
2019-02-24T00:30:15.829Z,4.03
2019-02-24T00:32:46.622Z,4.20
2019-02-24T00:35:18.341Z,4.90
2019-02-24T00:37:49.436Z,5.07
2019-02-24T00:40:20.187Z,4.60
2019-02-24T00:42:51.339Z,5.37
2019-02-24T00:45:22.579Z,4.90
2019-02-24T00:47:53.468Z,5.63
2019-02-24T00:50:25.398Z,4.93
2019-02-24T00:52:56.146Z,6.20
2019-02-24T00:55:27.144Z,6.03
2019-02-24T00:57:57.896Z,4.60
2019-02-24T01:00:30.169Z,5.70
2019-02-24T01:03:01.148Z,5.17
2019-02-24T01:05:32.176Z,7.63
2019-02-24T01:08:03.177Z,7.80
2019-02-24T01:10:33.951Z,6.97
2019-02-24T01:13:05.112Z,4.70
2019-02-24T01:15:35.944Z,7.70
2019-02-24T01:18:07.298Z,5.33
2019-02-24T01:20:38.382Z,6.57
2019-02-24T01:23:09.435Z,6.00
2019-02-24T01:25:40.342Z,6.27
2019-02-24T01:28:11.293Z,6.03
2019-02-24T01:30:42.331Z,5.07
2019-02-24T01:33:13.371Z,6.40
2019-02-24T01:35:44.252Z,6.30
2019-02-24T01:38:15.401Z,5.97
2019-02-24T01:40:46.592Z,6.97
2019-02-24T01:43:17.907Z,6.93
2019-02-24T01:45:48.766Z,5.73
2019-02-24T01:48:21.129Z,6.83
2019-02-24T01:50:53.226Z,5.50
2019-02-24T01:53:24.381Z,6.63
2019-02-24T01:55:55.503Z,5.97
2019-02-24T01:58:34.806Z,6.30
2019-02-24T02:01:00.159Z,6.70
2019-02-24T02:03:31.239Z,6.23
2019-02-24T02:06:02.099Z,6.03
2019-02-24T02:08:33.176Z,6.87
2019-02-24T02:11:04.737Z,7.60
2019-02-24T02:13:36.177Z,7.27
2019-02-24T02:16:07.259Z,8.07
2019-02-24T02:18:38.060Z,6.53
2019-02-24T02:21:09.139Z,6.30
2019-02-24T02:23:40.048Z,5.97
2019-02-24T02:26:11.423Z,6.23
2019-02-24T02:28:44.181Z,7.43
2019-02-24T02:31:14.792Z,5.40
2019-02-24T02:33:45.937Z,5.57
2019-02-24T02:36:16.720Z,8.63
2019-02-24T02:38:47.535Z,6.00
2019-02-24T02:41:19.398Z,5.93
2019-02-24T02:43:50.631Z,6.47
2019-02-24T02:46:21.669Z,6.77
2019-02-24T02:48:52.661Z,5.83
2019-02-24T02:51:23.865Z,5.90
2019-02-24T02:53:55.405Z,6.83
2019-02-24T02:56:26.340Z,5.60
2019-02-24T02:58:57.802Z,6.87
2019-02-24T03:01:29.971Z,6.77
2019-02-24T03:04:01.160Z,6.20
2019-02-24T03:06:39.946Z,7.63
2019-02-24T03:09:12.316Z,8.50
2019-02-24T03:11:43.259Z,6.37
2019-02-24T03:14:14.829Z,6.60
2019-02-24T03:16:45.875Z,6.90
2019-02-24T03:19:17.228Z,7.73
2019-02-24T03:21:48.362Z,6.87
2019-02-24T03:24:20.379Z,7.70
2019-02-24T03:26:51.672Z,6.53
2019-02-24T03:29:23.306Z,6.27
2019-02-24T03:31:55.387Z,5.70
2019-02-24T03:34:26.841Z,6.73
2019-02-24T03:36:58.114Z,6.40
2019-02-24T03:39:29.633Z,7.87
2019-02-24T03:42:00.511Z,6.23
2019-02-24T03:44:32.697Z,6.57
2019-02-24T03:47:03.816Z,7.37
2019-02-24T03:49:35.942Z,7.77
2019-02-24T03:52:07.087Z,5.40
2019-02-24T03:54:38.503Z,9.00
2019-02-24T03:57:09.598Z,4.80
2019-02-24T03:59:40.721Z,6.23
2019-02-24T04:02:11.817Z,5.53
2019-02-24T04:04:43.375Z,6.47
2019-02-24T04:07:14.630Z,5.20
2019-02-24T04:09:45.442Z,6.50
2019-02-24T04:12:16.514Z,7.17
2019-02-24T04:14:47.413Z,5.77
2019-02-24T04:17:18.547Z,6.30
2019-02-24T04:19:49.673Z,6.73
2019-02-24T04:22:20.602Z,5.63
2019-02-24T04:24:51.987Z,5.77
2019-02-24T04:27:22.835Z,6.07
2019-02-24T04:29:54.012Z,6.07
2019-02-24T04:32:24.966Z,6.60
2019-02-24T04:34:55.851Z,5.37
2019-02-24T04:37:27.292Z,6.07
2019-02-24T04:39:58.086Z,5.27
2019-02-24T04:42:29.056Z,5.50
2019-02-24T04:44:59.855Z,6.10
2019-02-24T04:47:30.923Z,6.07
2019-02-24T04:50:02.034Z,7.87
2019-02-24T04:52:32.875Z,5.90
2019-02-24T04:55:03.756Z,6.03
2019-02-24T04:57:35.612Z,5.00
2019-02-24T05:00:07.092Z,7.20
2019-02-24T05:02:37.878Z,7.10
2019-02-24T05:05:08.897Z,5.80
2019-02-24T05:07:39.981Z,6.70
2019-02-24T05:10:11.096Z,6.13
2019-02-24T05:12:41.893Z,6.27
2019-02-24T05:15:13.115Z,6.47
2019-02-24T05:17:44.386Z,6.40
2019-02-24T05:20:15.261Z,5.90
2019-02-24T05:22:46.074Z,6.93
2019-02-24T05:25:17.177Z,4.63
2019-02-24T05:27:48.043Z,7.00
2019-02-24T05:30:18.915Z,5.53
2019-02-24T05:32:49.792Z,5.30
2019-02-24T05:35:20.676Z,6.43
2019-02-24T05:37:52.081Z,5.57
2019-02-24T05:40:23.187Z,5.47
2019-02-24T05:42:55.631Z,5.47
2019-02-24T05:45:26.881Z,5.70
2019-02-24T05:47:57.768Z,5.90
2019-02-24T05:50:28.788Z,4.50
2019-02-24T05:52:59.881Z,5.23
2019-02-24T05:55:31.082Z,5.27
2019-02-24T05:58:02.143Z,9.03
2019-02-24T06:00:33.005Z,6.40
2019-02-24T06:03:04.138Z,6.67
2019-02-24T06:05:34.949Z,6.20
2019-02-24T06:08:06.045Z,5.73
2019-02-24T06:10:37.414Z,4.33
2019-02-24T06:13:09.047Z,4.80
2019-02-24T06:15:40.197Z,4.00
2019-02-24T06:18:11.450Z,4.93
2019-02-24T06:20:42.679Z,6.00
2019-02-24T06:23:13.828Z,3.83
2019-02-24T06:25:44.991Z,5.57
2019-02-24T06:28:16.549Z,5.47
2019-02-24T06:30:47.417Z,4.20
2019-02-24T06:33:18.810Z,4.90
2019-02-24T06:35:49.941Z,4.30
2019-02-24T06:38:21.080Z,4.93
2019-02-24T06:40:51.893Z,4.67
2019-02-24T06:43:22.778Z,4.30
2019-02-24T06:45:53.904Z,5.90
2019-02-24T06:48:25.050Z,6.23
2019-02-24T06:50:59.487Z,4.30
2019-02-24T06:53:30.824Z,5.30
2019-02-24T06:56:02.404Z,4.53
2019-02-24T06:58:34.255Z,4.27
2019-02-24T07:01:05.689Z,4.27
2019-02-24T07:03:38.453Z,5.17
2019-02-24T07:06:09.321Z,4.57
2019-02-24T07:08:40.759Z,4.47
2019-02-24T07:11:11.627Z,4.63
2019-02-24T07:13:42.837Z,4.23
2019-02-24T07:16:14.186Z,4.60
2019-02-24T07:18:46.251Z,7.57
2019-02-24T07:21:18.012Z,8.93
2019-02-24T07:23:48.824Z,8.80
2019-02-24T07:26:20.302Z,8.37
2019-02-24T07:28:51.418Z,6.33
2019-02-24T07:31:22.293Z,5.43
2019-02-24T07:33:53.818Z,7.47
2019-02-24T07:36:24.694Z,8.83
2019-02-24T07:38:57.116Z,7.83
2019-02-24T07:41:28.173Z,10.23
2019-02-24T07:43:59.276Z,9.67
2019-02-24T07:46:30.061Z,10.27
2019-02-24T07:49:00.887Z,10.40
2019-02-24T07:51:32.051Z,10.10
2019-02-24T07:54:02.985Z,9.50
2019-02-24T07:56:33.853Z,10.47
2019-02-24T07:59:04.808Z,10.33
2019-02-24T08:01:35.954Z,9.67
2019-02-24T08:04:07.126Z,10.67
2019-02-24T08:06:37.988Z,9.40
2019-02-24T08:09:09.141Z,10.43
2019-02-24T08:11:40.178Z,8.77
2019-02-24T08:14:12.360Z,8.63
2019-02-24T08:16:43.166Z,12.50
2019-02-24T08:19:13.967Z,9.90
2019-02-24T08:21:44.983Z,11.03
2019-02-24T08:24:15.831Z,8.50
2019-02-24T08:26:47.051Z,10.63
2019-02-24T08:29:18.386Z,9.30
2019-02-24T08:31:49.752Z,10.10
2019-02-24T08:34:20.572Z,11.03
2019-02-24T08:36:51.542Z,11.00
2019-02-24T08:39:23.392Z,10.63
2019-02-24T08:41:54.196Z,11.43
2019-02-24T08:44:25.088Z,9.00
2019-02-24T08:46:55.928Z,9.67
2019-02-24T08:49:26.955Z,7.90
2019-02-24T08:51:57.812Z,9.20
2019-02-24T08:54:28.645Z,9.83
2019-02-24T08:56:59.863Z,8.63
2019-02-24T08:59:30.753Z,9.67
2019-02-24T09:02:01.916Z,11.37
2019-02-24T09:04:34.202Z,11.67
2019-02-24T09:07:05.250Z,11.53
2019-02-24T09:09:36.164Z,11.93
2019-02-24T09:12:07.011Z,12.57
2019-02-24T09:14:38.348Z,12.57
2019-02-24T09:17:09.492Z,11.97
2019-02-24T09:19:40.643Z,12.53
2019-02-24T09:22:12.494Z,11.97
2019-02-24T09:24:43.904Z,10.83
2019-02-24T09:27:15.607Z,9.47
2019-02-24T09:29:46.951Z,9.67
2019-02-24T09:32:18.188Z,8.80
2019-02-24T09:34:49.065Z,8.80
2019-02-24T09:37:20.421Z,7.83
2019-02-24T09:39:52.514Z,9.50
2019-02-24T09:42:23.681Z,9.83
2019-02-24T09:44:54.614Z,7.20
2019-02-24T09:47:25.588Z,7.70
2019-02-24T09:49:56.930Z,8.10
2019-02-24T09:52:28.028Z,9.57
2019-02-24T09:54:59.256Z,7.70
2019-02-24T09:57:30.572Z,10.60
2019-02-24T10:00:01.458Z,8.97
2019-02-24T10:02:32.457Z,8.20
2019-02-24T10:05:03.399Z,7.60
2019-02-24T10:07:34.324Z,7.80
2019-02-24T10:10:05.706Z,7.67
2019-02-24T10:12:36.816Z,7.63
2019-02-24T10:15:08.187Z,7.40
2019-02-24T10:17:39.082Z,7.57
2019-02-24T10:20:10.548Z,10.10
2019-02-24T10:22:41.904Z,9.77
2019-02-24T10:25:13.899Z,8.77
2019-02-24T10:27:44.724Z,6.70
2019-02-24T10:30:15.727Z,7.47
2019-02-24T10:32:46.541Z,8.53
2019-02-24T10:35:17.512Z,6.83
2019-02-24T10:37:48.345Z,11.07
2019-02-24T10:40:19.361Z,7.53
2019-02-24T10:42:50.590Z,6.57
2019-02-24T10:45:21.686Z,7.70
2019-02-24T10:47:53.053Z,7.33
2019-02-24T10:50:23.913Z,7.13
2019-02-24T10:52:55.151Z,6.83
2019-02-24T10:55:26.104Z,7.30
2019-02-24T10:57:57.215Z,5.60
2019-02-24T11:00:28.093Z,8.70
2019-02-24T11:02:59.190Z,6.70
2019-02-24T11:05:30.683Z,7.40
2019-02-24T11:08:01.590Z,7.33
2019-02-24T11:10:32.477Z,9.73
2019-02-24T11:13:04.175Z,6.60
2019-02-24T11:15:35.046Z,7.80
2019-02-24T11:18:06.306Z,11.33
2019-02-24T11:20:37.190Z,6.23
2019-02-24T11:23:08.980Z,7.80
2019-02-24T11:25:39.887Z,6.03
2019-02-24T11:28:10.791Z,5.90
2019-02-24T11:30:42.148Z,5.73
2019-02-24T11:33:13.228Z,6.23
2019-02-24T11:35:45.132Z,6.17
2019-02-24T11:38:16.281Z,11.03
2019-02-24T11:40:47.343Z,14.77
2019-02-24T11:43:18.472Z,7.37
2019-02-24T11:45:49.280Z,6.10
2019-02-24T11:48:20.413Z,6.67
2019-02-24T11:50:51.332Z,10.23
2019-02-24T11:53:22.485Z,6.50
2019-02-24T11:55:53.644Z,6.03
2019-02-24T11:58:24.540Z,6.03
2019-02-24T12:00:55.851Z,8.03
2019-02-24T12:03:27.361Z,7.23
2019-02-24T12:05:58.630Z,8.90
2019-02-24T12:08:29.525Z,5.93
2019-02-24T12:11:00.749Z,7.80
2019-02-24T12:13:33.167Z,7.37
2019-02-24T12:16:04.264Z,6.60
2019-02-24T12:18:35.316Z,6.33
2019-02-24T12:21:06.487Z,7.40
2019-02-24T12:23:37.856Z,7.50
2019-02-24T12:26:09.167Z,8.67
2019-02-24T12:28:40.238Z,7.43
2019-02-24T12:31:11.336Z,6.10
2019-02-24T12:33:42.165Z,6.13
2019-02-24T12:36:13.076Z,8.90
2019-02-24T12:38:44.199Z,5.97
2019-02-24T12:41:15.566Z,6.77
2019-02-24T12:43:46.931Z,6.70
2019-02-24T12:46:21.020Z,6.57
2019-02-24T12:48:52.310Z,6.77
2019-02-24T12:51:24.357Z,8.10
2019-02-24T12:53:55.410Z,6.93
2019-02-24T12:56:26.439Z,6.97
2019-02-24T12:58:57.267Z,6.37
2019-02-24T13:01:28.386Z,6.23
2019-02-24T13:03:59.206Z,9.07
2019-02-24T13:06:30.089Z,7.80
2019-02-24T13:09:01.277Z,6.33
2019-02-24T13:11:33.913Z,5.77
2019-02-24T13:14:04.795Z,5.60
2019-02-24T13:16:36.547Z,6.13
2019-02-24T13:19:07.460Z,7.33
2019-02-24T13:21:38.483Z,6.70
2019-02-24T13:24:09.356Z,8.17
2019-02-24T13:26:40.728Z,5.70
2019-02-24T13:29:11.686Z,9.17
2019-02-24T13:31:42.718Z,6.57
2019-02-24T13:34:13.543Z,5.90
2019-02-24T13:36:44.678Z,6.40
2019-02-24T13:39:16.052Z,5.67
2019-02-24T13:41:46.848Z,7.17
2019-02-24T13:44:17.744Z,6.50
2019-02-24T13:46:48.686Z,7.93
2019-02-24T13:49:19.592Z,4.93
2019-02-24T13:51:50.439Z,5.47
2019-02-24T13:54:21.374Z,5.67
2019-02-24T13:56:52.554Z,5.10
2019-02-24T13:59:23.657Z,6.20
2019-02-24T14:01:54.571Z,6.70
2019-02-24T14:04:25.731Z,5.40
2019-02-24T14:06:56.539Z,5.17
2019-02-24T14:09:27.322Z,5.77
2019-02-24T14:11:58.388Z,6.10
2019-02-24T14:14:29.438Z,6.77
2019-02-24T14:17:00.353Z,8.07
2019-02-24T14:19:31.182Z,6.80
2019-02-24T14:22:02.011Z,8.17
2019-02-24T14:24:32.886Z,5.10
2019-02-24T14:27:03.797Z,6.97
2019-02-24T14:29:34.637Z,5.83
2019-02-24T14:32:05.612Z,6.60
2019-02-24T14:34:36.675Z,9.07
2019-02-24T14:37:08.075Z,4.83
2019-02-24T14:39:38.961Z,5.73
2019-02-24T14:42:09.979Z,6.17
2019-02-24T14:44:41.086Z,5.47
2019-02-24T14:47:12.124Z,6.67
2019-02-24T14:49:43.149Z,4.63
2019-02-24T14:52:14.346Z,5.80
2019-02-24T14:54:45.767Z,4.97
2019-02-24T14:57:16.964Z,5.57
2019-02-24T14:59:48.060Z,4.67
2019-02-24T15:02:18.915Z,8.10
2019-02-24T15:04:49.913Z,5.10
2019-02-24T15:07:20.795Z,5.00
2019-02-24T15:09:51.600Z,11.57
2019-02-24T15:12:22.488Z,4.57
2019-02-24T15:14:53.676Z,6.10
2019-02-24T15:17:24.741Z,5.03
2019-02-24T15:19:55.777Z,11.23
2019-02-24T15:22:26.749Z,5.23
2019-02-24T15:24:57.837Z,4.23
2019-02-24T15:27:28.918Z,6.73
2019-02-24T15:29:59.763Z,4.57
2019-02-24T15:32:31.813Z,4.30
2019-02-24T15:35:02.706Z,5.00
2019-02-24T15:37:33.621Z,4.87
2019-02-24T15:40:05.067Z,5.27
2019-02-24T15:42:36.545Z,5.37
2019-02-24T15:45:08.050Z,5.00
2019-02-24T15:47:39.109Z,4.40
2019-02-24T15:50:10.161Z,4.23
2019-02-24T15:52:41.617Z,4.63
2019-02-24T15:55:12.522Z,6.33
2019-02-24T15:57:43.653Z,5.57
2019-02-24T16:00:15.792Z,5.03
2019-02-24T16:02:47.078Z,4.73
2019-02-24T16:05:18.147Z,4.67
2019-02-24T16:07:49.454Z,4.27
2019-02-24T16:10:20.686Z,5.27
2019-02-24T16:12:52.321Z,4.70
2019-02-24T16:15:23.483Z,5.90
2019-02-24T16:17:54.674Z,5.03
2019-02-24T16:20:27.020Z,6.23
2019-02-24T16:22:57.886Z,5.67
2019-02-24T16:25:29.305Z,4.53
2019-02-24T16:28:00.202Z,5.80
2019-02-24T16:30:31.167Z,4.63
2019-02-24T16:33:10.147Z,4.07
2019-02-24T16:35:34.835Z,3.77
2019-02-24T16:38:05.743Z,4.20
2019-02-24T16:40:36.685Z,5.23
2019-02-24T16:43:09.074Z,4.17
2019-02-24T16:45:40.179Z,4.23
2019-02-24T16:48:11.486Z,5.57
2019-02-24T16:50:42.285Z,5.83
2019-02-24T16:53:13.580Z,5.20
2019-02-24T16:55:44.385Z,5.20
2019-02-24T16:58:15.191Z,6.20
2019-02-24T17:00:46.536Z,5.37
2019-02-24T17:03:19.780Z,5.97
2019-02-24T17:05:51.180Z,5.33
2019-02-24T17:08:21.969Z,4.50
2019-02-24T17:10:52.783Z,7.23
2019-02-24T17:13:23.663Z,4.10
2019-02-24T17:15:54.784Z,4.53
2019-02-24T17:18:25.847Z,6.27
2019-02-24T17:20:56.720Z,5.57
2019-02-24T17:23:27.907Z,6.00
2019-02-24T17:25:59.089Z,5.50
2019-02-24T17:28:29.992Z,6.17
2019-02-24T17:31:01.152Z,6.90
2019-02-24T17:33:32.753Z,7.57
2019-02-24T17:36:04.046Z,6.93
2019-02-24T17:38:35.019Z,6.63
2019-02-24T17:41:06.561Z,4.37
2019-02-24T17:43:37.585Z,4.90
2019-02-24T17:46:11.665Z,4.47
2019-02-24T17:48:42.817Z,4.80
2019-02-24T17:51:20.763Z,6.60
2019-02-24T17:53:47.141Z,5.00
2019-02-24T17:56:18.322Z,5.30
2019-02-24T17:58:49.123Z,6.50
2019-02-24T18:01:20.205Z,5.43
2019-02-24T18:03:51.726Z,6.23
2019-02-24T18:06:22.524Z,5.80
2019-02-24T18:08:54.401Z,5.80
2019-02-24T18:11:25.573Z,5.03
2019-02-24T18:13:56.376Z,6.20
2019-02-24T18:16:27.203Z,6.03
2019-02-24T18:18:58.322Z,6.07
2019-02-24T18:21:29.196Z,6.30
2019-02-24T18:24:01.801Z,5.37
2019-02-24T18:26:32.653Z,5.93
2019-02-24T18:29:03.916Z,6.90
2019-02-24T18:31:35.348Z,5.50
2019-02-24T18:34:06.143Z,6.63
2019-02-24T18:36:37.259Z,7.13
2019-02-24T18:39:09.292Z,6.67
2019-02-24T18:41:40.679Z,5.07
2019-02-24T18:44:11.774Z,5.57
2019-02-24T18:46:42.892Z,6.53
2019-02-24T18:49:14.707Z,6.23
2019-02-24T18:51:45.584Z,5.73
2019-02-24T18:54:17.662Z,6.33
2019-02-24T18:56:48.571Z,6.07
2019-02-24T18:59:19.620Z,9.73
2019-02-24T19:01:50.924Z,5.53
2019-02-24T19:04:21.918Z,5.67
2019-02-24T19:06:53.081Z,5.73
2019-02-24T19:09:23.950Z,7.43
2019-02-24T19:11:54.814Z,6.43
2019-02-24T19:14:26.076Z,5.93
2019-02-24T19:16:57.344Z,6.37
2019-02-24T19:19:28.078Z,7.10
2019-02-24T19:21:58.860Z,8.93
2019-02-24T19:24:30.159Z,5.33
2019-02-24T19:27:01.018Z,5.53
2019-02-24T19:29:32.348Z,6.37
2019-02-24T19:32:03.143Z,7.07
2019-02-24T19:34:34.025Z,6.90
2019-02-24T19:37:05.115Z,9.13
2019-02-24T19:39:36.163Z,8.63
2019-02-24T19:42:07.267Z,15.10
2019-02-24T19:44:38.334Z,9.83
2019-02-24T19:47:09.128Z,26.93
2019-02-24T19:49:40.505Z,28.10
2019-02-24T19:52:11.693Z,27.67
2019-02-24T19:54:42.814Z,22.27
2019-02-24T19:57:13.856Z,14.10
2019-02-24T19:59:44.657Z,8.93
2019-02-24T20:02:15.687Z,6.30
2019-02-24T20:04:46.611Z,7.37
2019-02-24T20:07:18.483Z,4.83
2019-02-24T20:09:49.291Z,7.50
2019-02-24T20:12:20.164Z,7.93
2019-02-24T20:14:51.334Z,6.77
2019-02-24T20:17:22.785Z,7.83
2019-02-24T20:19:53.936Z,6.17
2019-02-24T20:22:25.099Z,8.93
2019-02-24T20:24:55.887Z,6.47
2019-02-24T20:27:26.950Z,5.53
2019-02-24T20:29:57.823Z,5.60
2019-02-24T20:32:28.776Z,6.53
2019-02-24T20:34:59.574Z,4.83
2019-02-24T20:37:30.369Z,6.30
2019-02-24T20:40:02.371Z,6.20
2019-02-24T20:42:33.610Z,6.03
2019-02-24T20:45:04.699Z,4.80
2019-02-24T20:47:35.655Z,5.93
2019-02-24T20:50:07.559Z,6.27
2019-02-24T20:52:38.768Z,4.93
2019-02-24T20:55:09.954Z,5.23
2019-02-24T20:57:40.749Z,5.13
2019-02-24T21:00:18.013Z,4.83
2019-02-24T21:02:48.796Z,6.00
2019-02-24T21:05:19.678Z,5.37
2019-02-24T21:07:50.476Z,5.37
2019-02-24T21:10:21.418Z,7.17
2019-02-24T21:12:52.695Z,4.83
2019-02-24T21:15:23.577Z,4.07
2019-02-24T21:17:54.809Z,5.10
2019-02-24T21:20:27.017Z,4.20
2019-02-24T21:22:58.104Z,4.87
2019-02-24T21:25:29.394Z,3.60
2019-02-24T21:28:00.467Z,3.77
2019-02-24T21:30:31.995Z,5.70
2019-02-24T21:33:02.828Z,5.40
2019-02-24T21:35:33.717Z,5.17
2019-02-24T21:38:05.557Z,4.87
2019-02-24T21:40:36.443Z,4.47
2019-02-24T21:43:07.581Z,3.47
2019-02-24T21:45:38.489Z,5.20
2019-02-24T21:48:11.048Z,4.30
2019-02-24T21:50:42.462Z,4.33
2019-02-24T21:53:13.492Z,4.33
2019-02-24T21:55:44.311Z,6.47
2019-02-24T21:58:15.729Z,6.07
2019-02-24T22:00:47.178Z,4.07
2019-02-24T22:03:18.122Z,4.07
2019-02-24T22:05:49.163Z,3.87
2019-02-24T22:08:20.201Z,7.07
2019-02-24T22:10:51.130Z,4.30
2019-02-24T22:13:22.599Z,4.97
2019-02-24T22:15:53.464Z,5.40
2019-02-24T22:18:24.276Z,5.23
2019-02-24T22:20:55.155Z,5.80
2019-02-24T22:23:26.028Z,4.43
2019-02-24T22:25:56.900Z,6.23
2019-02-24T22:28:27.915Z,6.67
2019-02-24T22:30:58.984Z,4.37
2019-02-24T22:33:30.062Z,4.77
2019-02-24T22:36:01.557Z,6.57
2019-02-24T22:38:32.426Z,4.53
2019-02-24T22:41:03.301Z,3.27
2019-02-24T22:43:34.087Z,5.03
2019-02-24T22:46:05.174Z,3.93
2019-02-24T22:48:36.506Z,4.70
2019-02-24T22:51:07.563Z,3.57
2019-02-24T22:53:38.411Z,3.23
2019-02-24T22:56:10.160Z,5.90
2019-02-24T22:58:41.251Z,5.67
2019-02-24T23:01:18.492Z,5.23
2019-02-24T23:03:50.240Z,6.20
2019-02-24T23:06:21.113Z,5.43
2019-02-24T23:08:52.012Z,7.00
2019-02-24T23:11:23.124Z,4.63
2019-02-24T23:13:54.133Z,6.10
2019-02-24T23:16:25.105Z,4.87
2019-02-24T23:18:55.907Z,5.43
2019-02-24T23:21:27.076Z,5.37
2019-02-24T23:23:58.170Z,4.63
2019-02-24T23:26:30.597Z,6.10
2019-02-24T23:29:01.383Z,5.90
2019-02-24T23:31:32.260Z,5.60
2019-02-24T23:34:03.623Z,6.33
2019-02-24T23:36:34.584Z,5.60
2019-02-24T23:39:09.310Z,5.37
2019-02-24T23:41:41.245Z,5.27
2019-02-24T23:44:12.460Z,4.57
2019-02-24T23:46:43.861Z,10.53
2019-02-24T23:49:14.725Z,4.83
2019-02-24T23:51:45.836Z,4.20
2019-02-24T23:54:16.918Z,5.00
2019-02-24T23:56:47.812Z,4.80
2019-02-24T23:59:18.881Z,6.73
